createdAt,value
2024-05-09T00:00:39.947Z,100687.09
2024-05-09T00:01:30.380Z,100684.84
2024-05-09T00:02:20.050Z,100688.34
2024-05-09T00:03:11.347Z,100691.94
2024-05-09T00:04:01.557Z,100688.44
2024-05-09T00:04:51.393Z,100691.16
2024-05-09T00:05:42.530Z,100692.47
2024-05-09T00:06:32.233Z,100687.34
2024-05-09T00:07:21.867Z,100688.09
2024-05-09T00:08:11.852Z,100688.84
2024-05-09T00:09:01.554Z,100689.34
2024-05-09T00:09:51.276Z,100682.72
2024-05-09T00:10:41.425Z,100685.22
2024-05-09T00:11:31.142Z,100687.84
2024-05-09T00:12:21.236Z,100689.56
2024-05-09T00:13:11.296Z,100686.66
2024-05-09T00:14:01.418Z,100677.69
2024-05-09T00:14:50.918Z,100684.78
2024-05-09T00:15:40.242Z,100683.75
2024-05-09T00:16:29.595Z,100687.72
2024-05-09T00:17:19.440Z,100689.72
2024-05-09T00:18:09.443Z,100687.72
2024-05-09T00:18:59.013Z,100685.84
2024-05-09T00:19:48.697Z,100683.47
2024-05-09T00:20:40.721Z,100684.31
2024-05-09T00:21:30.717Z,100686.56
2024-05-09T00:22:20.210Z,100686.66
2024-05-09T00:23:09.824Z,100685.03
2024-05-09T00:23:59.239Z,100681.00
2024-05-09T00:24:48.906Z,100693.03
2024-05-09T00:25:38.604Z,100688.41
2024-05-09T00:26:28.295Z,100686.03
2024-05-09T00:27:17.645Z,100686.31
2024-05-09T00:28:07.427Z,100684.16
2024-05-09T00:28:56.989Z,100682.53
2024-05-09T00:29:46.559Z,100683.41
2024-05-09T00:30:37.192Z,100680.69
2024-05-09T00:31:27.116Z,100684.00
2024-05-09T00:32:16.419Z,100688.44
2024-05-09T00:33:07.786Z,100680.91
2024-05-09T00:33:58.699Z,100682.00
2024-05-09T00:34:48.521Z,100687.66
2024-05-09T00:35:38.284Z,100681.81
2024-05-09T00:36:27.999Z,100686.53
2024-05-09T00:37:17.389Z,100683.13
2024-05-09T00:38:07.152Z,100691.34
2024-05-09T00:38:56.408Z,100690.78
2024-05-09T00:39:46.125Z,100688.03
2024-05-09T00:40:40.907Z,100683.47
2024-05-09T00:41:32.240Z,100692.03
2024-05-09T00:42:22.016Z,100680.94
2024-05-09T00:43:12.679Z,100682.09
2024-05-09T00:44:03.507Z,100681.16
2024-05-09T00:44:52.819Z,100690.59
2024-05-09T00:45:42.264Z,100675.31
2024-05-09T00:46:32.268Z,100686.06
2024-05-09T00:47:23.022Z,100680.88
2024-05-09T00:48:16.232Z,100679.06
2024-05-09T00:49:08.576Z,100678.97
2024-05-09T00:49:59.069Z,100676.06
2024-05-09T00:50:48.969Z,100680.34
2024-05-09T00:51:41.326Z,100678.03
2024-05-09T00:52:31.659Z,100681.53
2024-05-09T00:53:21.469Z,100679.06
2024-05-09T00:54:11.108Z,100678.88
2024-05-09T00:55:00.702Z,100667.69
2024-05-09T00:55:51.808Z,100669.31
2024-05-09T00:56:41.292Z,100682.78
2024-05-09T00:57:31.561Z,100672.97
2024-05-09T00:58:22.948Z,100673.66
2024-05-09T00:59:12.597Z,100672.38
2024-05-09T01:00:02.279Z,100675.88
2024-05-09T01:00:52.373Z,100668.97
2024-05-09T01:01:42.511Z,100672.56
2024-05-09T01:02:32.258Z,100665.66
2024-05-09T01:03:22.582Z,100673.56
2024-05-09T01:04:12.919Z,100676.66
2024-05-09T01:05:02.897Z,100673.66
2024-05-09T01:05:52.619Z,100673.66
2024-05-09T01:06:42.374Z,100682.53
2024-05-09T01:07:31.749Z,100675.38
2024-05-09T01:08:21.684Z,100675.19
2024-05-09T01:09:11.126Z,100673.56
2024-05-09T01:10:00.873Z,100669.06
2024-05-09T01:10:50.802Z,100678.88
2024-05-09T01:11:40.688Z,100673.59
2024-05-09T01:12:30.548Z,100673.34
2024-05-09T01:13:20.207Z,100672.13
2024-05-09T01:14:10.068Z,100676.16
2024-05-09T01:14:59.584Z,100675.38
2024-05-09T01:15:51.772Z,100677.09
2024-05-09T01:16:41.404Z,100676.69
2024-05-09T01:17:31.959Z,100674.22
2024-05-09T01:18:21.683Z,100671.16
2024-05-09T01:19:19.378Z,100680.53
2024-05-09T01:20:12.887Z,100674.91
2024-05-09T01:21:08.311Z,100673.28
2024-05-09T01:21:57.587Z,100676.44
2024-05-09T01:22:47.332Z,100675.88
2024-05-09T01:23:37.064Z,100680.19
2024-05-09T01:24:26.191Z,100676.34
2024-05-09T01:25:15.711Z,100672.84
2024-05-09T01:26:05.164Z,100670.97
2024-05-09T01:26:54.505Z,100677.81
2024-05-09T01:27:43.966Z,100676.59
2024-05-09T01:28:33.337Z,100674.72
2024-05-09T01:29:23.145Z,100677.81
2024-05-09T01:30:17.377Z,100672.53
2024-05-09T01:31:14.862Z,100667.56
2024-05-09T01:32:04.863Z,100677.81
2024-05-09T01:32:54.586Z,100669.97
2024-05-09T01:33:44.307Z,100681.47
2024-05-09T01:34:33.889Z,100681.38
2024-05-09T01:35:23.194Z,100673.16
2024-05-09T01:36:12.669Z,100668.09
2024-05-09T01:37:02.544Z,100676.50
2024-05-09T01:37:52.340Z,100674.81
2024-05-09T01:38:42.062Z,100673.03
2024-05-09T01:39:31.692Z,100682.22
2024-05-09T01:40:28.562Z,100673.63
2024-05-09T01:41:23.602Z,100680.69
2024-05-09T01:42:15.330Z,100676.34
2024-05-09T01:43:05.370Z,100674.72
2024-05-09T01:43:54.713Z,100680.34
2024-05-09T01:44:45.683Z,100672.16
2024-05-09T01:45:34.899Z,100678.56
2024-05-09T01:46:24.309Z,100677.38
2024-05-09T01:47:13.871Z,100678.22
2024-05-09T01:48:04.549Z,100681.78
2024-05-09T01:48:54.505Z,100677.13
2024-05-09T01:49:44.297Z,100675.13
2024-05-09T01:50:38.961Z,100685.09
2024-05-09T01:51:31.368Z,100679.16
2024-05-09T01:52:20.862Z,100675.75
2024-05-09T01:53:13.259Z,100675.59
2024-05-09T01:54:03.191Z,100681.88
2024-05-09T01:54:52.525Z,100674.63
2024-05-09T01:55:42.851Z,100684.84
2024-05-09T01:56:32.527Z,100677.25
2024-05-09T01:57:22.260Z,100679.66
2024-05-09T01:58:12.181Z,100674.97
2024-05-09T01:59:01.432Z,100669.25
2024-05-09T01:59:51.011Z,100684.66
2024-05-09T02:00:42.596Z,100669.50
2024-05-09T02:01:55.440Z,100679.38
2024-05-09T02:02:45.167Z,100675.22
2024-05-09T02:03:34.883Z,100677.88
2024-05-09T02:04:24.419Z,100674.94
2024-05-09T02:05:14.386Z,100681.00
2024-05-09T02:06:04.145Z,100674.19
2024-05-09T02:06:53.498Z,100680.38
2024-05-09T02:07:43.122Z,100667.41
2024-05-09T02:08:33.113Z,100678.19
2024-05-09T02:09:22.505Z,100671.03
2024-05-09T02:10:20.075Z,100679.97
2024-05-09T02:11:13.004Z,100670.88
2024-05-09T02:12:02.755Z,100677.94
2024-05-09T02:12:52.027Z,100669.50
2024-05-09T02:13:41.667Z,100673.44
2024-05-09T02:14:31.520Z,100676.47
2024-05-09T02:15:21.200Z,100674.31
2024-05-09T02:16:13.578Z,100675.09
2024-05-09T02:17:03.361Z,100679.19
2024-05-09T02:17:53.108Z,100680.06
2024-05-09T02:18:43.120Z,100678.09
2024-05-09T02:19:33.061Z,100673.53
2024-05-09T02:20:30.319Z,100674.69
2024-05-09T02:21:25.420Z,100680.59
2024-05-09T02:22:14.764Z,100668.06
2024-05-09T02:23:05.468Z,100676.41
2024-05-09T02:23:55.243Z,100670.50
2024-05-09T02:24:44.684Z,100670.44
2024-05-09T02:25:34.155Z,100665.72
2024-05-09T02:26:23.631Z,100669.59
2024-05-09T02:27:13.183Z,100672.06
2024-05-09T02:28:02.924Z,100671.69
2024-05-09T02:28:52.711Z,100672.88
2024-05-09T02:29:44.032Z,100665.31
2024-05-09T02:30:39.119Z,100662.50
2024-05-09T02:31:31.152Z,100663.75
2024-05-09T02:32:20.730Z,100672.44
2024-05-09T02:33:11.670Z,100682.66
2024-05-09T02:34:03.515Z,100674.31
2024-05-09T02:34:53.164Z,100665.94
2024-05-09T02:35:43.737Z,100669.44
2024-05-09T02:36:33.719Z,100673.84
2024-05-09T02:37:23.264Z,100672.69
2024-05-09T02:38:12.933Z,100670.97
2024-05-09T02:39:02.841Z,100676.94
2024-05-09T02:39:52.423Z,100676.16
2024-05-09T02:40:41.784Z,100670.72
2024-05-09T02:41:31.286Z,100668.88
2024-05-09T02:42:20.865Z,100670.19
2024-05-09T02:43:11.792Z,100666.88
2024-05-09T02:44:01.971Z,100668.19
2024-05-09T02:44:51.368Z,100674.31
2024-05-09T02:45:40.915Z,100678.72
2024-05-09T02:46:30.380Z,100675.56
2024-05-09T02:47:20.189Z,100671.13
2024-05-09T02:48:11.189Z,100673.53
2024-05-09T02:49:01.404Z,100673.59
2024-05-09T02:49:51.017Z,100675.41
2024-05-09T02:50:41.006Z,100679.13
2024-05-09T02:51:30.992Z,100681.22
2024-05-09T02:52:20.198Z,100680.75
2024-05-09T02:53:12.812Z,100683.06
2024-05-09T02:54:02.747Z,100688.19
2024-05-09T02:54:52.434Z,100678.19
2024-05-09T02:55:42.785Z,100687.81
2024-05-09T02:56:32.812Z,100682.59
2024-05-09T02:57:22.062Z,100682.00
2024-05-09T02:58:11.838Z,100689.19
2024-05-09T02:59:01.459Z,100683.78
2024-05-09T02:59:50.934Z,100684.78
2024-05-09T03:00:42.428Z,100692.47
2024-05-09T03:01:32.514Z,100694.94
2024-05-09T03:02:22.234Z,100686.25
2024-05-09T03:03:14.021Z,100688.78
2024-05-09T03:04:05.008Z,100687.34
2024-05-09T03:04:54.640Z,100685.19
2024-05-09T03:05:45.017Z,100682.06
2024-05-09T03:06:39.485Z,100686.56
2024-05-09T03:07:28.860Z,100679.50
2024-05-09T03:08:18.305Z,100677.72
2024-05-09T03:09:10.533Z,100677.72
2024-05-09T03:10:00.295Z,100683.78
2024-05-09T03:10:49.662Z,100681.69
2024-05-09T03:11:39.332Z,100674.25
2024-05-09T03:12:28.791Z,100681.25
2024-05-09T03:13:18.620Z,100683.66
2024-05-09T03:14:08.054Z,100679.00
2024-05-09T03:14:57.884Z,100684.41
2024-05-09T03:15:47.608Z,100678.66
2024-05-09T03:16:37.944Z,100678.66
2024-05-09T03:17:27.225Z,100680.28
2024-05-09T03:18:16.843Z,100677.72
2024-05-09T03:19:06.406Z,100683.88
2024-05-09T03:19:55.970Z,100678.63
2024-05-09T03:20:45.718Z,100683.72
2024-05-09T03:21:41.171Z,100681.47
2024-05-09T03:22:30.762Z,100688.22
2024-05-09T03:23:20.573Z,100683.03
2024-05-09T03:24:10.136Z,100687.16
2024-05-09T03:24:59.470Z,100683.41
2024-05-09T03:25:49.011Z,100683.28
2024-05-09T03:26:40.302Z,100684.91
2024-05-09T03:27:29.960Z,100687.22
2024-05-09T03:28:19.294Z,100677.53
2024-05-09T03:29:09.228Z,100687.53
2024-05-09T03:29:58.720Z,100687.06
2024-05-09T03:30:48.340Z,100692.50
2024-05-09T03:31:38.132Z,100696.69
2024-05-09T03:32:27.788Z,100689.09
2024-05-09T03:33:19.370Z,100685.66
2024-05-09T03:34:10.452Z,100691.88
2024-05-09T03:35:00.256Z,100693.88
2024-05-09T03:35:49.917Z,100695.94
2024-05-09T03:36:42.746Z,100687.75
2024-05-09T03:37:32.275Z,100695.22
2024-05-09T03:38:21.927Z,100696.59
2024-05-09T03:39:11.520Z,100697.06
2024-05-09T03:40:01.187Z,100692.34
2024-05-09T03:40:51.131Z,100694.38
2024-05-09T03:41:40.686Z,100695.00
2024-05-09T03:42:30.251Z,100692.66
2024-05-09T03:43:20.244Z,100691.66
2024-05-09T03:44:09.559Z,100691.66
2024-05-09T03:44:59.337Z,100699.22
2024-05-09T03:45:49.386Z,100691.25
2024-05-09T03:46:39.083Z,100692.66
2024-05-09T03:47:29.069Z,100691.59
2024-05-09T03:48:18.998Z,100692.88
2024-05-09T03:49:08.542Z,100696.78
2024-05-09T03:49:58.274Z,100696.44
2024-05-09T03:50:47.630Z,100687.44
2024-05-09T03:51:37.175Z,100697.53
2024-05-09T03:52:26.897Z,100695.38
2024-05-09T03:53:16.469Z,100694.22
2024-05-09T03:54:05.962Z,100693.75
2024-05-09T03:54:55.374Z,100690.22
2024-05-09T03:55:45.150Z,100693.28
2024-05-09T03:56:34.874Z,100694.72
2024-05-09T03:57:24.196Z,100693.56
2024-05-09T03:58:13.508Z,100695.06
2024-05-09T03:59:03.293Z,100700.16
2024-05-09T03:59:52.961Z,100682.88
2024-05-09T04:00:42.603Z,100697.63
2024-05-09T04:01:32.157Z,100703.50
2024-05-09T04:02:22.019Z,100704.03
2024-05-09T04:03:13.074Z,100709.09
2024-05-09T04:04:02.803Z,100697.84
2024-05-09T04:04:52.383Z,100703.19
2024-05-09T04:05:43.691Z,100710.31
2024-05-09T04:06:33.885Z,100707.59
2024-05-09T04:07:23.590Z,100713.66
2024-05-09T04:08:13.597Z,100708.53
2024-05-09T04:09:04.097Z,100713.88
2024-05-09T04:09:53.653Z,100707.53
2024-05-09T04:10:42.983Z,100716.44
2024-05-09T04:11:32.969Z,100720.72
2024-05-09T04:12:22.421Z,100716.53
2024-05-09T04:13:12.009Z,100714.75
2024-05-09T04:14:01.652Z,100716.38
2024-05-09T04:14:51.299Z,100710.56
2024-05-09T04:15:40.621Z,100712.41
2024-05-09T04:16:30.190Z,100715.66
2024-05-09T04:17:19.899Z,100715.50
2024-05-09T04:18:09.600Z,100720.03
2024-05-09T04:18:59.087Z,100718.22
2024-05-09T04:19:48.809Z,100726.47
2024-05-09T04:20:40.632Z,100724.84
2024-05-09T04:21:30.753Z,100724.22
2024-05-09T04:22:19.956Z,100720.63
2024-05-09T04:23:11.266Z,100718.84
2024-05-09T04:24:00.956Z,100721.34
2024-05-09T04:24:51.776Z,100723.19
2024-05-09T04:25:42.857Z,100727.31
2024-05-09T04:26:32.111Z,100718.84
2024-05-09T04:27:21.846Z,100716.28
2024-05-09T04:28:11.351Z,100724.75
2024-05-09T04:29:00.597Z,100713.44
2024-05-09T04:29:49.898Z,100715.44
2024-05-09T04:30:41.371Z,100711.25
2024-05-09T04:31:35.618Z,100717.00
2024-05-09T04:32:24.926Z,100712.94
2024-05-09T04:33:15.343Z,100715.13
2024-05-09T04:34:05.705Z,100712.28
2024-05-09T04:34:55.495Z,100715.41
2024-05-09T04:35:45.619Z,100712.94
2024-05-09T04:36:35.478Z,100718.41
2024-05-09T04:37:25.269Z,100710.63
2024-05-09T04:38:15.488Z,100710.63
2024-05-09T04:39:05.416Z,100721.69
2024-05-09T04:39:56.393Z,100711.50
2024-05-09T04:40:46.089Z,100721.47
2024-05-09T04:41:35.527Z,100715.41
2024-05-09T04:42:24.782Z,100720.22
2024-05-09T04:43:16.402Z,100721.84
2024-05-09T04:44:05.995Z,100716.44
2024-05-09T04:44:58.672Z,100714.22
2024-05-09T04:45:49.653Z,100727.50
2024-05-09T04:46:39.206Z,100711.38
2024-05-09T04:47:28.962Z,100726.19
2024-05-09T04:48:18.747Z,100727.59
2024-05-09T04:49:08.539Z,100724.50
2024-05-09T04:49:58.064Z,100732.31
2024-05-09T04:50:47.737Z,100726.91
2024-05-09T04:51:37.101Z,100722.72
2024-05-09T04:52:26.407Z,100724.59
2024-05-09T04:53:16.862Z,100733.75
2024-05-09T04:54:08.473Z,100723.31
2024-05-09T04:55:00.284Z,100734.50
2024-05-09T04:55:50.125Z,100728.75
2024-05-09T04:56:39.892Z,100735.59
2024-05-09T04:57:29.442Z,100729.88
2024-05-09T04:58:19.116Z,100741.13
2024-05-09T04:59:08.477Z,100727.59
2024-05-09T04:59:57.870Z,100727.06
2024-05-09T05:00:47.682Z,100728.69
2024-05-09T05:01:36.991Z,100722.63
2024-05-09T05:02:26.526Z,100725.41
2024-05-09T05:03:16.927Z,100732.00
2024-05-09T05:04:06.967Z,100726.75
2024-05-09T05:04:56.664Z,100735.25
2024-05-09T05:05:46.676Z,100730.66
2024-05-09T05:06:35.907Z,100732.22
2024-05-09T05:07:25.655Z,100736.00
2024-05-09T05:08:17.520Z,100735.84
2024-05-09T05:09:07.898Z,100741.38
2024-05-09T05:09:57.383Z,100738.22
2024-05-09T05:10:47.454Z,100735.44
2024-05-09T05:11:38.067Z,100741.22
2024-05-09T05:12:46.212Z,100740.50
2024-05-09T05:13:38.642Z,100749.19
2024-05-09T05:14:29.493Z,100733.03
2024-05-09T05:15:19.262Z,100734.84
2024-05-09T05:16:08.768Z,100736.47
2024-05-09T05:16:58.278Z,100737.31
2024-05-09T05:17:48.213Z,100737.22
2024-05-09T05:18:37.928Z,100743.53
2024-05-09T05:19:27.815Z,100733.38
2024-05-09T05:20:27.009Z,100731.25
2024-05-09T05:21:21.060Z,100746.34
2024-05-09T05:22:10.502Z,100736.59
2024-05-09T05:23:00.244Z,100736.78
2024-05-09T05:23:49.791Z,100732.91
2024-05-09T05:24:39.683Z,100736.63
2024-05-09T05:25:29.360Z,100731.44
2024-05-09T05:26:19.333Z,100734.78
2024-05-09T05:27:08.980Z,100737.78
2024-05-09T05:27:58.719Z,100729.19
2024-05-09T05:28:48.576Z,100737.41
2024-05-09T05:29:37.872Z,100733.53
2024-05-09T05:30:32.582Z,100730.44
2024-05-09T05:31:23.910Z,100735.22
2024-05-09T05:32:13.692Z,100736.09
2024-05-09T05:33:04.594Z,100741.78
2024-05-09T05:33:54.068Z,100742.47
2024-05-09T05:34:43.567Z,100744.00
2024-05-09T05:35:33.972Z,100741.81
2024-05-09T05:36:23.614Z,100736.72
2024-05-09T05:37:13.264Z,100749.22
2024-05-09T05:38:05.779Z,100749.50
2024-05-09T05:38:55.005Z,100755.44
2024-05-09T05:39:44.758Z,100749.59
2024-05-09T05:40:37.690Z,100742.34
2024-05-09T05:41:28.026Z,100752.47
2024-05-09T05:42:17.703Z,100754.03
2024-05-09T05:43:15.839Z,100751.19
2024-05-09T05:44:05.309Z,100758.84
2024-05-09T05:44:54.614Z,100754.97
2024-05-09T05:45:45.084Z,100751.75
2024-05-09T05:46:34.891Z,100755.25
2024-05-09T05:47:24.326Z,100760.47
2024-05-09T05:48:15.124Z,100758.91
2024-05-09T05:49:04.814Z,100753.53
2024-05-09T05:49:54.431Z,100774.31
2024-05-09T05:50:44.151Z,100760.28
2024-05-09T05:51:33.734Z,100759.53
2024-05-09T05:52:23.074Z,100761.13
2024-05-09T05:53:12.494Z,100768.81
2024-05-09T05:54:02.062Z,100764.13
2024-05-09T05:54:51.666Z,100756.69
2024-05-09T05:55:41.318Z,100754.31
2024-05-09T05:56:30.952Z,100765.22
2024-05-09T05:57:20.110Z,100759.44
2024-05-09T05:58:10.556Z,100757.56
2024-05-09T05:59:00.069Z,100767.09
2024-05-09T05:59:49.295Z,100762.16
2024-05-09T06:00:40.806Z,100764.63
2024-05-09T06:01:30.908Z,100758.31
2024-05-09T06:02:20.198Z,100766.75
2024-05-09T06:03:13.297Z,100766.34
2024-05-09T06:04:03.271Z,100758.41
2024-05-09T06:04:53.050Z,100757.13
2024-05-09T06:05:44.795Z,100761.13
2024-05-09T06:06:34.356Z,100767.59
2024-05-09T06:07:23.699Z,100760.78
2024-05-09T06:08:13.376Z,100762.16
2024-05-09T06:09:02.913Z,100754.72
2024-05-09T06:09:52.546Z,100767.25
2024-05-09T06:10:42.653Z,100764.19
2024-05-09T06:11:32.531Z,100764.78
2024-05-09T06:12:22.220Z,100755.81
2024-05-09T06:13:12.733Z,100765.13
2024-05-09T06:14:04.237Z,100766.84
2024-05-09T06:14:53.785Z,100767.34
2024-05-09T06:15:43.962Z,100769.81
2024-05-09T06:16:33.820Z,100768.38
2024-05-09T06:17:23.328Z,100765.34
2024-05-09T06:18:13.272Z,100765.88
2024-05-09T06:19:03.226Z,100756.16
2024-05-09T06:19:53.337Z,100764.66
2024-05-09T06:20:44.164Z,100764.81
2024-05-09T06:21:34.001Z,100761.44
2024-05-09T06:22:23.308Z,100770.63
2024-05-09T06:23:13.391Z,100766.25
2024-05-09T06:24:06.536Z,100773.03
2024-05-09T06:24:56.212Z,100775.38
2024-05-09T06:25:45.996Z,100775.47
2024-05-09T06:26:35.583Z,100776.06
2024-05-09T06:27:25.246Z,100774.25
2024-05-09T06:28:14.638Z,100772.56
2024-05-09T06:29:04.009Z,100766.56
2024-05-09T06:29:53.173Z,100777.31
2024-05-09T06:30:43.455Z,100775.78
2024-05-09T06:31:39.795Z,100780.09
2024-05-09T06:32:29.511Z,100772.63
2024-05-09T06:33:19.488Z,100775.13
2024-05-09T06:34:09.516Z,100772.38
2024-05-09T06:34:59.220Z,100779.63
2024-05-09T06:35:48.630Z,100776.31
2024-05-09T06:36:38.284Z,100782.47
2024-05-09T06:37:27.941Z,100777.06
2024-05-09T06:38:17.586Z,100772.19
2024-05-09T06:39:09.008Z,100784.38
2024-05-09T06:39:58.407Z,100777.19
2024-05-09T06:40:47.717Z,100771.13
2024-05-09T06:41:37.042Z,100778.94
2024-05-09T06:42:26.475Z,100776.09
2024-05-09T06:43:18.561Z,100777.25
2024-05-09T06:44:09.288Z,100776.63
2024-05-09T06:44:58.958Z,100778.25
2024-05-09T06:45:51.486Z,100778.44
2024-05-09T06:46:41.283Z,100783.16
2024-05-09T06:47:31.599Z,100780.13
2024-05-09T06:48:22.053Z,100770.63
2024-05-09T06:49:12.582Z,100781.53
2024-05-09T06:50:02.208Z,100777.78
2024-05-09T06:50:51.687Z,100775.31
2024-05-09T06:51:41.366Z,100777.78
2024-05-09T06:52:30.754Z,100777.78
2024-05-09T06:53:22.348Z,100773.50
2024-05-09T06:54:12.079Z,100780.50
2024-05-09T06:55:01.827Z,100781.53
2024-05-09T06:55:51.696Z,100778.75
2024-05-09T06:56:41.211Z,100778.41
2024-05-09T06:57:30.668Z,100777.56
2024-05-09T06:58:20.421Z,100777.00
2024-05-09T06:59:10.240Z,100779.38
2024-05-09T06:59:59.835Z,100783.72
2024-05-09T07:00:49.294Z,100780.19
2024-05-09T07:01:38.980Z,100780.84
2024-05-09T07:02:28.754Z,100792.31
2024-05-09T07:03:19.488Z,100787.63
2024-05-09T07:04:09.592Z,100784.13
2024-05-09T07:04:59.555Z,100793.16
2024-05-09T07:05:49.818Z,100792.38
2024-05-09T07:06:39.335Z,100792.13
2024-05-09T07:07:28.807Z,100788.03
2024-05-09T07:08:18.932Z,100782.34
2024-05-09T07:09:08.829Z,100787.28
2024-05-09T07:09:58.498Z,100789.66
2024-05-09T07:10:48.861Z,100781.03
2024-05-09T07:11:38.620Z,100784.72
2024-05-09T07:12:28.314Z,100786.34
2024-05-09T07:13:18.106Z,100793.53
2024-05-09T07:14:07.617Z,100800.66
2024-05-09T07:14:57.142Z,100803.59
2024-05-09T07:15:46.473Z,100795.34
2024-05-09T07:16:36.021Z,100799.81
2024-05-09T07:17:25.829Z,100802.81
2024-05-09T07:18:17.160Z,100794.34
2024-05-09T07:19:08.513Z,100804.56
2024-05-09T07:19:58.951Z,100810.56
2024-05-09T07:20:49.212Z,100792.75
2024-05-09T07:21:39.699Z,100799.88
2024-05-09T07:22:29.047Z,100803.22
2024-05-09T07:23:19.053Z,100805.53
2024-05-09T07:24:08.546Z,100807.25
2024-05-09T07:24:58.240Z,100804.13
2024-05-09T07:25:48.351Z,100803.94
2024-05-09T07:26:37.978Z,100803.28
2024-05-09T07:27:27.533Z,100815.34
2024-05-09T07:28:20.047Z,100794.94
2024-05-09T07:29:09.496Z,100801.09
2024-05-09T07:29:59.147Z,100805.88
2024-05-09T07:30:48.584Z,100807.00
2024-05-09T07:31:38.172Z,100815.38
2024-05-09T07:32:27.676Z,100808.41
2024-05-09T07:33:19.783Z,100801.59
2024-05-09T07:34:12.205Z,100800.69
2024-05-09T07:35:01.865Z,100806.00
2024-05-09T07:35:51.850Z,100804.09
2024-05-09T07:36:41.751Z,100793.69
2024-05-09T07:37:31.149Z,100801.34
2024-05-09T07:38:20.589Z,100793.53
2024-05-09T07:39:10.148Z,100795.97
2024-05-09T07:39:59.564Z,100796.72
2024-05-09T07:40:49.366Z,100802.28
2024-05-09T07:41:38.623Z,100792.28
2024-05-09T07:42:28.361Z,100803.13
2024-05-09T07:43:18.133Z,100803.09
2024-05-09T07:44:08.220Z,100804.84
2024-05-09T07:45:11.215Z,100805.00
2024-05-09T07:47:13.787Z,100796.84
2024-05-09T07:48:29.021Z,100807.75
2024-05-09T07:50:00.328Z,100805.16
2024-05-09T07:53:29.784Z,100805.00
2024-05-09T07:54:17.799Z,100808.44
2024-05-09T07:55:07.470Z,100817.66
2024-05-09T07:55:57.224Z,100812.47
2024-05-09T07:56:47.323Z,100809.75
2024-05-09T07:57:36.906Z,100814.81
2024-05-09T07:58:26.784Z,100816.69
2024-05-09T07:59:16.691Z,100818.94
2024-05-09T08:00:06.807Z,100813.81
2024-05-09T08:00:56.391Z,100822.00
2024-05-09T08:01:46.334Z,100815.31
2024-05-09T08:02:36.001Z,100818.19
2024-05-09T08:03:25.337Z,100815.31
2024-05-09T08:04:15.099Z,100817.56
2024-05-09T08:05:04.844Z,100816.94
2024-05-09T08:05:54.984Z,100816.41
2024-05-09T08:06:44.759Z,100815.00
2024-05-09T08:07:35.926Z,100815.00
2024-05-09T08:08:25.393Z,100817.56
2024-05-09T08:09:20.557Z,100815.34
2024-05-09T08:10:15.234Z,100816.72
2024-05-09T08:11:08.298Z,100818.41
2024-05-09T08:11:58.177Z,100827.56
2024-05-09T08:12:47.888Z,100823.81
2024-05-09T08:13:37.144Z,100821.41
2024-05-09T08:14:26.921Z,100817.53
2024-05-09T08:15:16.555Z,100821.38
2024-05-09T08:16:06.350Z,100816.56
2024-05-09T08:16:55.961Z,100822.84
2024-05-09T08:17:45.717Z,100827.53
2024-05-09T08:18:35.839Z,100821.16
2024-05-09T08:19:25.166Z,100825.97
2024-05-09T08:20:22.861Z,100821.81
2024-05-09T08:21:19.737Z,100817.88
2024-05-09T08:22:09.454Z,100826.94
2024-05-09T08:22:58.766Z,100822.13
2024-05-09T08:23:48.428Z,100826.16
2024-05-09T08:24:37.915Z,100830.84
2024-05-09T08:25:27.515Z,100820.97
2024-05-09T08:26:17.042Z,100829.38
2024-05-09T08:27:06.554Z,100826.47
2024-05-09T08:27:56.343Z,100831.91
2024-05-09T08:28:45.682Z,100827.47
2024-05-09T08:29:35.937Z,100819.06
2024-05-09T08:30:32.778Z,100824.47
2024-05-09T08:31:25.950Z,100829.50
2024-05-09T08:32:15.784Z,100831.91
2024-05-09T08:33:06.680Z,100833.94
2024-05-09T08:33:57.154Z,100830.00
2024-05-09T08:34:47.102Z,100828.19
2024-05-09T08:35:36.627Z,100828.00
2024-05-09T08:36:25.951Z,100830.75
2024-05-09T08:37:21.494Z,100833.09
2024-05-09T08:38:13.096Z,100832.25
2024-05-09T08:39:02.373Z,100830.44
2024-05-09T08:39:52.115Z,100826.94
2024-05-09T08:40:41.702Z,100837.53
2024-05-09T08:41:31.933Z,100839.69
2024-05-09T08:42:22.508Z,100836.91
2024-05-09T08:43:13.394Z,100834.91
2024-05-09T08:44:02.893Z,100840.19
2024-05-09T08:44:52.818Z,100848.81
2024-05-09T08:45:43.863Z,100838.59
2024-05-09T08:46:35.738Z,100843.50
2024-05-09T08:47:27.731Z,100851.81
2024-05-09T08:48:19.404Z,100839.66
2024-05-09T08:49:09.424Z,100843.41
2024-05-09T08:49:59.900Z,100843.81
2024-05-09T08:50:51.766Z,100846.66
2024-05-09T08:51:42.419Z,100845.53
2024-05-09T08:52:31.695Z,100851.69
2024-05-09T08:53:21.350Z,100849.44
2024-05-09T08:54:10.953Z,100846.88
2024-05-09T08:55:00.567Z,100845.06
2024-05-09T08:55:50.430Z,100850.31
2024-05-09T08:56:44.714Z,100847.13
2024-05-09T08:57:35.445Z,100856.69
2024-05-09T08:58:25.825Z,100848.84
2024-05-09T08:59:18.820Z,100850.84
2024-05-09T09:00:12.748Z,100848.19
2024-05-09T09:01:04.720Z,100854.13
2024-05-09T09:01:54.386Z,100851.59
2024-05-09T09:02:44.135Z,100848.28
2024-05-09T09:03:36.062Z,100860.72
2024-05-09T09:04:27.010Z,100862.41
2024-05-09T09:05:20.190Z,100858.78
2024-05-09T09:06:13.388Z,100857.53
2024-05-09T09:07:04.214Z,100846.88
2024-05-09T09:07:53.805Z,100864.34
2024-05-09T09:08:45.381Z,100853.06
2024-05-09T09:09:42.324Z,100857.41
2024-05-09T09:10:33.032Z,100854.97
2024-05-09T09:11:22.847Z,100853.91
2024-05-09T09:12:12.656Z,100856.47
2024-05-09T09:13:03.227Z,100854.53
2024-05-09T09:13:52.653Z,100843.16
2024-05-09T09:14:42.497Z,100851.78
2024-05-09T09:15:32.084Z,100856.03
2024-05-09T09:16:32.703Z,100852.16
2024-05-09T09:17:22.099Z,100863.59
2024-05-09T09:18:14.219Z,100851.09
2024-05-09T09:19:04.258Z,100852.41
2024-05-09T09:19:54.175Z,100856.34
2024-05-09T09:20:43.934Z,100852.41
2024-05-09T09:21:36.374Z,100857.84
2024-05-09T09:22:25.823Z,100853.59
2024-05-09T09:23:15.605Z,100860.38
2024-05-09T09:24:09.756Z,100855.47
2024-05-09T09:24:59.994Z,100851.16
2024-05-09T09:25:49.445Z,100858.75
2024-05-09T09:26:38.789Z,100863.84
2024-05-09T09:27:28.426Z,100847.47
2024-05-09T09:28:21.862Z,100848.31
2024-05-09T09:29:11.664Z,100841.69
2024-05-09T09:30:01.184Z,100853.59
2024-05-09T09:30:50.630Z,100853.16
2024-05-09T09:31:40.994Z,100854.53
2024-05-09T09:32:30.634Z,100845.59
2024-05-09T09:33:20.424Z,100849.00
2024-05-09T09:34:10.149Z,100849.63
2024-05-09T09:34:59.556Z,100854.84
2024-05-09T09:35:49.188Z,100851.34
2024-05-09T09:36:41.662Z,100851.97
2024-05-09T09:37:31.569Z,100849.97
2024-05-09T09:38:22.460Z,100856.91
2024-05-09T09:39:16.006Z,100856.38
2024-05-09T09:40:08.966Z,100855.84